Sao Lourenco, Brazil
Current Conditions -  °F | °C
As of 10:00 AM on Thursday 30 Oct 2014 (Local Time) from SBGW Reporting Station
Few Clouds Few Clouds  
Wind Chill: 88°   Ceiling: Unl
Heat Index: 88°   Visibility: 6mi
Dew Point: 61°   Wind: 7mph
Humidity: 40%   Direction: 70°ENE
Pressure: 29.91"   Gusts: NA
Location:  22.12°S, 45.05°W
Report Text: SBGW 301200Z 07006KT 020V160 9999 FEW030 31/16 Q1013
Loading
Personal Weather Stations






























Interactive Weather Map
Tropical Storm Tracking
New forecast layout! Learn more

10-Day Weather Forecast

Advertisements
Track Severe Weather on mobile